Terminal Aerodrome Forecast
Issued by NWS Binghamton, NY

Home | Current Version | Previous Version | Text Only | Print | Product List | Glossary On
Versions: 1 2 3 4 5 6 7 8 9 10 11 12 13 14 15 16 17 18
000
FTUS41 KBGM 042341
TAFSYR
TAF
KSYR 042341Z 0500/0524 09005KT P6SM SCT025 BKN040
      TEMPO 0503/0506 BKN025
     FM050600 08004KT P6SM OVC025
     FM051400 05007KT P6SM BKN035
     FM051800 02008KT P6SM BKN040=

USA.gov is the U.S. government's official web portal to all federal, state and local government web resources and services.